createdAt,value
2017-11-20T00:01:24.913Z,6.73
2017-11-20T00:03:51.546Z,4.87
2017-11-20T00:06:18.148Z,5.40
2017-11-20T00:08:44.758Z,5.37
2017-11-20T00:11:11.350Z,3.73
2017-11-20T00:13:37.976Z,4.20
2017-11-20T00:16:04.607Z,4.70
2017-11-20T00:18:31.185Z,3.63
2017-11-20T00:20:57.791Z,7.23
2017-11-20T00:23:24.400Z,4.50
2017-11-20T00:25:51.159Z,4.20
2017-11-20T00:28:18.033Z,4.03
2017-11-20T00:30:44.650Z,11.47
2017-11-20T00:33:11.287Z,3.83
2017-11-20T00:35:37.950Z,8.93
2017-11-20T00:38:04.547Z,6.57
2017-11-20T00:40:31.151Z,3.77
2017-11-20T00:42:57.753Z,5.30
2017-11-20T00:45:24.367Z,4.20
2017-11-20T00:47:50.965Z,3.50
2017-11-20T00:50:17.590Z,7.10
2017-11-20T00:52:44.166Z,5.57
2017-11-20T00:55:10.771Z,6.13
2017-11-20T00:57:37.390Z,7.10
2017-11-20T01:00:03.982Z,8.73
2017-11-20T01:02:30.584Z,4.30
2017-11-20T01:04:57.176Z,8.23
2017-11-20T01:07:23.810Z,8.43
2017-11-20T01:09:50.395Z,4.30
2017-11-20T01:12:16.993Z,7.20
2017-11-20T01:14:43.588Z,6.23
2017-11-20T01:17:10.192Z,8.47
2017-11-20T01:19:36.797Z,7.93
2017-11-20T01:22:03.398Z,4.43
2017-11-20T01:24:30.031Z,7.43
2017-11-20T01:26:56.630Z,14.87
2017-11-20T01:29:23.253Z,8.93
2017-11-20T01:31:50.079Z,8.30
2017-11-20T01:34:16.689Z,17.30
2017-11-20T01:36:43.273Z,9.73
2017-11-20T01:39:09.887Z,14.47
2017-11-20T01:41:36.486Z,8.97
2017-11-20T01:44:03.093Z,14.00
2017-11-20T01:46:29.726Z,12.27
2017-11-20T01:48:56.363Z,17.43
2017-11-20T01:51:22.946Z,6.73
2017-11-20T01:53:49.584Z,14.03
2017-11-20T01:56:16.205Z,9.33
2017-11-20T01:58:42.813Z,15.20
2017-11-20T02:01:09.442Z,11.47
2017-11-20T02:03:36.032Z,7.40
2017-11-20T02:06:02.696Z,8.23
2017-11-20T02:08:29.305Z,12.47
2017-11-20T02:10:55.933Z,12.73
2017-11-20T02:13:22.552Z,8.83
2017-11-20T02:15:49.154Z,9.37
2017-11-20T02:18:15.812Z,9.47
2017-11-20T02:20:42.401Z,12.43
2017-11-20T02:23:09.187Z,8.23
2017-11-20T02:25:35.766Z,11.67
2017-11-20T02:28:02.371Z,8.93
2017-11-20T02:30:28.970Z,18.83
2017-11-20T02:32:55.578Z,14.73
2017-11-20T02:35:22.206Z,14.87
2017-11-20T02:37:48.801Z,6.67
2017-11-20T02:40:15.411Z,18.53
2017-11-20T02:42:42.039Z,8.03
2017-11-20T02:45:08.626Z,10.53
2017-11-20T02:47:35.244Z,7.80
2017-11-20T02:50:01.846Z,14.10
2017-11-20T02:52:28.740Z,14.80
2017-11-20T02:54:55.343Z,13.83
2017-11-20T02:57:21.923Z,14.97
2017-11-20T02:59:48.531Z,8.53
2017-11-20T03:02:15.179Z,7.13
2017-11-20T03:04:41.790Z,5.40
2017-11-20T03:07:08.396Z,13.93
2017-11-20T03:09:35.219Z,11.17
2017-11-20T03:12:01.819Z,12.23
2017-11-20T03:14:28.470Z,16.53
2017-11-20T03:16:55.112Z,9.13
2017-11-20T03:19:21.713Z,9.50
2017-11-20T03:21:48.370Z,23.50
2017-11-20T03:24:14.996Z,11.17
2017-11-20T03:26:41.620Z,10.30
2017-11-20T03:29:08.221Z,18.20
2017-11-20T03:31:34.809Z,13.80
2017-11-20T03:34:01.398Z,8.60
2017-11-20T03:36:28.008Z,11.83
2017-11-20T03:38:54.591Z,14.40
2017-11-20T03:41:21.207Z,8.13
2017-11-20T03:43:47.796Z,10.37
2017-11-20T03:46:14.412Z,13.83
2017-11-20T03:48:40.994Z,6.63
2017-11-20T03:51:07.598Z,19.97
2017-11-20T03:53:34.214Z,16.43
2017-11-20T03:56:00.863Z,12.50
2017-11-20T03:58:27.511Z,17.37
2017-11-20T04:00:54.122Z,7.10
2017-11-20T04:03:20.735Z,10.43
2017-11-20T04:05:47.325Z,4.63
2017-11-20T04:08:14.024Z,12.63
2017-11-20T04:10:40.616Z,10.60
2017-11-20T04:13:07.261Z,13.43
2017-11-20T04:15:33.865Z,7.50
2017-11-20T04:18:00.486Z,11.57
2017-11-20T04:20:27.094Z,14.47
2017-11-20T04:22:53.670Z,8.80
2017-11-20T04:25:20.274Z,9.40
2017-11-20T04:27:46.913Z,19.83
2017-11-20T04:30:13.535Z,9.87
2017-11-20T04:32:40.118Z,11.30
2017-11-20T04:35:06.814Z,7.50
2017-11-20T04:37:33.418Z,6.13
2017-11-20T04:40:00.022Z,6.83
2017-11-20T04:42:26.609Z,6.80
2017-11-20T04:44:53.231Z,5.70
2017-11-20T04:47:19.845Z,14.50
2017-11-20T04:49:46.466Z,7.73
2017-11-20T04:52:13.063Z,13.30
2017-11-20T04:54:39.659Z,6.43
2017-11-20T04:57:06.262Z,8.30
2017-11-20T04:59:32.878Z,9.47
2017-11-20T05:01:59.476Z,9.13
2017-11-20T05:04:26.068Z,11.60
2017-11-20T05:06:52.728Z,10.23
2017-11-20T05:09:19.302Z,7.77
2017-11-20T05:11:45.929Z,13.83
2017-11-20T05:14:12.544Z,20.80
2017-11-20T05:16:39.176Z,13.93
2017-11-20T05:19:05.795Z,7.60
2017-11-20T05:21:32.382Z,9.30
2017-11-20T05:23:58.983Z,15.03
2017-11-20T05:26:25.574Z,19.57
2017-11-20T05:28:52.405Z,10.50
2017-11-20T05:31:19.005Z,9.30
2017-11-20T05:33:45.642Z,7.10
2017-11-20T05:36:12.238Z,10.40
2017-11-20T05:38:38.883Z,11.73
2017-11-20T05:41:05.481Z,14.40
2017-11-20T05:43:32.114Z,10.07
2017-11-20T05:45:58.722Z,11.63
2017-11-20T05:48:25.393Z,21.33
2017-11-20T05:50:51.989Z,12.13
2017-11-20T05:53:19.979Z,13.80
2017-11-20T05:55:46.764Z,9.57
2017-11-20T05:58:13.356Z,37.87
2017-11-20T06:00:40.408Z,13.77
2017-11-20T06:03:07.739Z,17.13
2017-11-20T06:05:34.368Z,15.67
2017-11-20T06:08:01.057Z,11.43
2017-11-20T06:10:27.661Z,14.53
2017-11-20T06:12:54.263Z,5.10
2017-11-20T06:15:20.879Z,11.30
2017-11-20T06:17:47.580Z,9.20
2017-11-20T06:20:14.205Z,10.03
2017-11-20T06:22:40.857Z,14.10
2017-11-20T06:25:07.508Z,12.13
2017-11-20T06:27:34.134Z,13.97
2017-11-20T06:30:00.745Z,15.70
2017-11-20T06:32:27.409Z,10.13
2017-11-20T06:34:54.033Z,11.63
2017-11-20T06:37:20.637Z,13.33
2017-11-20T06:39:47.250Z,10.87
2017-11-20T06:42:13.970Z,15.67
2017-11-20T06:44:40.592Z,9.10
2017-11-20T06:47:07.405Z,8.87
2017-11-20T06:49:34.085Z,7.40
2017-11-20T06:52:00.701Z,9.20
2017-11-20T06:54:27.316Z,10.37
2017-11-20T06:56:53.920Z,11.70
2017-11-20T06:59:20.526Z,7.33
2017-11-20T07:01:47.119Z,10.60
2017-11-20T07:04:13.729Z,11.10
2017-11-20T07:06:40.355Z,7.77
2017-11-20T07:09:06.960Z,9.43
2017-11-20T07:11:33.545Z,17.40
2017-11-20T07:14:00.181Z,12.27
2017-11-20T07:16:26.785Z,12.83
2017-11-20T07:18:53.664Z,14.23
2017-11-20T07:21:20.277Z,9.90
2017-11-20T07:23:46.899Z,13.83
2017-11-20T07:26:19.306Z,11.10
2017-11-20T07:28:51.779Z,9.43
2017-11-20T07:31:24.153Z,7.67
2017-11-20T07:33:56.598Z,7.90
2017-11-20T07:36:28.935Z,11.20
2017-11-20T07:39:01.509Z,16.53
2017-11-20T07:41:34.023Z,11.57
2017-11-20T07:44:00.635Z,14.67
2017-11-20T07:46:27.245Z,11.50
2017-11-20T07:48:53.863Z,12.67
2017-11-20T07:51:20.720Z,12.20
2017-11-20T07:53:47.369Z,12.43
2017-11-20T07:56:14.009Z,13.87
2017-11-20T07:58:40.608Z,22.07
2017-11-20T08:01:07.282Z,12.40
2017-11-20T08:03:33.911Z,8.93
2017-11-20T08:06:00.510Z,15.00
2017-11-20T08:08:27.106Z,17.90
2017-11-20T08:10:53.767Z,10.30
2017-11-20T08:13:20.369Z,18.17
2017-11-20T08:15:46.956Z,18.57
2017-11-20T08:18:13.560Z,9.07
2017-11-20T08:20:40.147Z,17.47
2017-11-20T08:23:06.758Z,16.67
2017-11-20T08:25:33.369Z,15.37
2017-11-20T08:27:59.985Z,15.40
2017-11-20T08:30:26.622Z,17.90
2017-11-20T08:32:53.246Z,22.37
2017-11-20T08:35:19.845Z,24.60
2017-11-20T08:37:46.478Z,22.33
2017-11-20T08:40:13.086Z,16.90
2017-11-20T08:42:39.702Z,17.10
2017-11-20T08:45:06.313Z,17.57
2017-11-20T08:47:32.952Z,28.27
2017-11-20T08:49:59.578Z,16.43
2017-11-20T08:52:26.228Z,17.30
2017-11-20T08:54:52.899Z,24.30
2017-11-20T08:57:19.487Z,24.90
2017-11-20T08:59:46.116Z,20.67
2017-11-20T09:02:12.735Z,14.90
2017-11-20T09:04:39.347Z,24.00
2017-11-20T09:07:05.976Z,25.40
2017-11-20T09:09:32.576Z,39.10
2017-11-20T09:11:59.285Z,22.40
2017-11-20T09:14:25.914Z,16.33
2017-11-20T09:16:52.632Z,20.63
2017-11-20T09:19:19.203Z,30.87
2017-11-20T09:21:45.807Z,26.73
2017-11-20T09:24:12.481Z,25.00
2017-11-20T09:26:39.089Z,22.17
2017-11-20T09:29:05.701Z,20.73
2017-11-20T09:31:32.502Z,21.13
2017-11-20T09:33:59.115Z,25.50
2017-11-20T09:36:25.820Z,17.47
2017-11-20T09:38:52.431Z,21.13
2017-11-20T09:41:19.048Z,23.03
2017-11-20T09:43:45.714Z,16.67
2017-11-20T09:46:12.319Z,25.97
2017-11-20T09:48:38.947Z,29.93
2017-11-20T09:51:05.573Z,24.33
2017-11-20T09:53:32.203Z,21.93
2017-11-20T09:55:58.797Z,26.43
2017-11-20T09:58:25.430Z,24.57
2017-11-20T10:00:52.053Z,26.13
2017-11-20T10:03:18.680Z,24.27
2017-11-20T10:05:45.310Z,25.17
2017-11-20T10:08:11.929Z,24.53
2017-11-20T10:10:38.567Z,21.60
2017-11-20T10:13:05.161Z,22.90
2017-11-20T10:15:31.782Z,25.00
2017-11-20T10:17:58.398Z,28.00
2017-11-20T10:20:25.022Z,25.27
2017-11-20T10:22:51.634Z,21.90
2017-11-20T10:25:18.218Z,28.93
2017-11-20T10:27:44.834Z,25.53
2017-11-20T10:30:11.447Z,28.03
2017-11-20T10:32:38.069Z,25.67
2017-11-20T10:35:04.679Z,20.90
2017-11-20T10:37:31.296Z,22.53
2017-11-20T10:39:57.882Z,25.43
2017-11-20T10:42:24.570Z,31.20
2017-11-20T10:44:51.151Z,27.13
2017-11-20T10:47:17.747Z,121.17
2017-11-20T10:49:44.421Z,45.27
2017-11-20T10:52:11.062Z,27.97
2017-11-20T10:54:37.693Z,31.63
2017-11-20T10:57:04.289Z,24.47
2017-11-20T10:59:30.896Z,25.10
2017-11-20T11:01:57.496Z,22.40
2017-11-20T11:04:24.130Z,29.47
2017-11-20T11:06:50.756Z,23.10
2017-11-20T11:09:17.385Z,24.93
2017-11-20T11:11:43.994Z,26.60
2017-11-20T11:14:10.610Z,33.53
2017-11-20T11:16:37.238Z,25.47
2017-11-20T11:19:03.908Z,22.93
2017-11-20T11:21:30.503Z,31.47
2017-11-20T11:23:57.128Z,26.60
2017-11-20T11:26:23.845Z,24.93
2017-11-20T11:28:50.443Z,31.80
2017-11-20T11:31:17.037Z,22.97
2017-11-20T11:33:43.639Z,25.60
2017-11-20T11:36:10.267Z,19.33
2017-11-20T11:38:36.869Z,17.17
2017-11-20T11:41:03.497Z,29.47
2017-11-20T11:43:30.140Z,26.40
2017-11-20T11:45:56.782Z,33.33
2017-11-20T11:48:23.443Z,20.13
2017-11-20T11:50:50.077Z,27.33
2017-11-20T11:53:16.696Z,23.10
2017-11-20T11:55:43.335Z,24.80
2017-11-20T11:58:10.363Z,17.70
2017-11-20T12:00:37.000Z,30.37
2017-11-20T12:03:03.695Z,20.80
2017-11-20T12:05:30.291Z,25.13
2017-11-20T12:07:56.927Z,26.93
2017-11-20T12:10:23.570Z,26.63
2017-11-20T12:12:50.173Z,24.10
2017-11-20T12:15:16.780Z,30.50
2017-11-20T12:17:43.391Z,23.43
2017-11-20T12:20:10.468Z,17.77
2017-11-20T12:22:37.071Z,20.27
2017-11-20T12:25:03.629Z,19.97
2017-11-20T12:27:30.304Z,25.33
2017-11-20T12:29:56.929Z,22.60
2017-11-20T12:32:23.584Z,21.40
2017-11-20T12:34:50.187Z,20.70
2017-11-20T12:37:16.809Z,17.83
2017-11-20T12:39:43.440Z,26.40
2017-11-20T12:42:10.074Z,22.03
2017-11-20T12:44:36.672Z,22.33
2017-11-20T12:47:03.300Z,22.13
2017-11-20T12:49:29.914Z,18.70
2017-11-20T12:51:56.534Z,18.70
2017-11-20T12:54:23.160Z,24.37
2017-11-20T12:56:49.782Z,20.07
2017-11-20T12:59:16.422Z,19.30
2017-11-20T13:01:43.077Z,19.17
2017-11-20T13:04:09.743Z,25.27
2017-11-20T13:06:36.416Z,33.70
2017-11-20T13:09:03.065Z,24.10
2017-11-20T13:11:29.669Z,22.70
2017-11-20T13:13:56.328Z,25.27
2017-11-20T13:16:22.956Z,17.47
2017-11-20T13:18:49.561Z,17.83
2017-11-20T13:21:16.190Z,15.40
2017-11-20T13:23:42.819Z,27.73
2017-11-20T13:26:09.448Z,29.07
2017-11-20T13:28:36.061Z,20.03
2017-11-20T13:31:02.675Z,14.70
2017-11-20T13:33:29.290Z,17.07
2017-11-20T13:35:55.914Z,14.07
2017-11-20T13:38:22.629Z,18.53
2017-11-20T13:40:49.237Z,21.23
2017-11-20T13:43:15.881Z,15.07
2017-11-20T13:45:42.463Z,15.70
2017-11-20T13:48:09.127Z,18.07
2017-11-20T13:50:35.727Z,11.50
2017-11-20T13:53:02.481Z,20.70
2017-11-20T13:55:29.101Z,19.47
2017-11-20T13:57:55.718Z,10.30
2017-11-20T14:00:22.341Z,18.47
2017-11-20T14:02:48.962Z,11.63
2017-11-20T14:05:15.625Z,18.30
2017-11-20T14:07:42.242Z,11.40
2017-11-20T14:10:08.855Z,20.00
2017-11-20T14:12:35.498Z,33.00
2017-11-20T14:15:02.108Z,24.80
2017-11-20T14:17:28.740Z,22.73
2017-11-20T14:19:55.344Z,13.97
2017-11-20T14:22:21.941Z,19.10
2017-11-20T14:24:48.576Z,9.60
2017-11-20T14:27:15.171Z,18.63
2017-11-20T14:29:41.782Z,9.67
2017-11-20T14:32:08.515Z,14.83
2017-11-20T14:34:35.158Z,10.40
2017-11-20T14:37:01.745Z,18.83
2017-11-20T14:39:28.392Z,19.43
2017-11-20T14:41:54.993Z,15.00
2017-11-20T14:44:21.628Z,17.77
2017-11-20T14:46:58.985Z,15.87
2017-11-20T14:49:25.616Z,21.13
2017-11-20T14:51:54.099Z,17.50
2017-11-20T14:54:23.606Z,20.60
2017-11-20T14:56:50.207Z,17.73
2017-11-20T14:59:16.830Z,14.37
2017-11-20T15:01:46.127Z,18.50
2017-11-20T15:04:12.717Z,16.23
2017-11-20T15:06:39.539Z,19.03
2017-11-20T15:09:06.144Z,19.90
2017-11-20T15:11:32.834Z,23.63
2017-11-20T15:13:59.472Z,13.87
2017-11-20T15:16:26.169Z,13.80
2017-11-20T15:18:52.804Z,14.30
2017-11-20T15:21:19.413Z,11.57
2017-11-20T15:23:46.100Z,15.47
2017-11-20T15:26:12.732Z,16.37
2017-11-20T15:28:39.391Z,20.90
2017-11-20T15:31:06.051Z,19.37
2017-11-20T15:33:32.729Z,13.20
2017-11-20T15:35:59.315Z,14.93
2017-11-20T15:38:26.054Z,15.23
2017-11-20T15:40:52.699Z,13.83
2017-11-20T15:43:19.328Z,18.30
2017-11-20T15:45:46.046Z,17.47
2017-11-20T15:48:12.726Z,19.23
2017-11-20T15:50:39.403Z,19.07
2017-11-20T15:53:06.141Z,20.30
2017-11-20T15:55:32.756Z,17.27
2017-11-20T15:57:59.704Z,18.80
2017-11-20T16:00:26.320Z,15.07
2017-11-20T16:02:52.914Z,19.40
2017-11-20T16:05:19.540Z,20.73
2017-11-20T16:07:46.140Z,18.40
2017-11-20T16:10:12.785Z,14.40
2017-11-20T16:12:39.411Z,14.33
2017-11-20T16:15:06.010Z,15.90
2017-11-20T16:17:32.685Z,17.00
2017-11-20T16:19:59.342Z,16.13
2017-11-20T16:22:25.958Z,16.37
2017-11-20T16:24:52.560Z,14.30
2017-11-20T16:27:19.234Z,14.73
2017-11-20T16:29:45.846Z,14.53
2017-11-20T16:32:12.503Z,16.10
2017-11-20T16:34:39.150Z,13.83
2017-11-20T16:37:05.992Z,16.07
2017-11-20T16:39:32.644Z,14.97
2017-11-20T16:41:59.296Z,17.87
2017-11-20T16:44:25.924Z,17.13
2017-11-20T16:46:52.524Z,17.90
2017-11-20T16:49:19.173Z,22.23
2017-11-20T16:51:45.778Z,20.80
2017-11-20T16:54:12.409Z,19.10
2017-11-20T16:56:38.997Z,20.73
2017-11-20T16:59:08.742Z,19.53
2017-11-20T17:01:42.020Z,15.17
2017-11-20T17:04:08.633Z,17.13
2017-11-20T17:06:35.281Z,16.30
2017-11-20T17:09:03.535Z,15.33
2017-11-20T17:11:32.745Z,18.30
2017-11-20T17:14:00.093Z,15.97
2017-11-20T17:16:28.392Z,15.30
2017-11-20T17:18:57.148Z,17.77
2017-11-20T17:21:23.885Z,18.27
2017-11-20T17:23:50.518Z,15.10
2017-11-20T17:26:17.306Z,21.03
2017-11-20T17:28:43.956Z,18.30
2017-11-20T17:31:10.574Z,16.30
2017-11-20T17:33:38.559Z,15.40
2017-11-20T17:36:05.282Z,16.80
2017-11-20T17:38:32.124Z,17.43
2017-11-20T17:41:02.019Z,17.30
2017-11-20T17:43:29.547Z,20.70
2017-11-20T17:45:56.277Z,16.17
2017-11-20T17:48:22.904Z,16.23
2017-11-20T17:50:49.523Z,17.03
2017-11-20T17:53:16.144Z,16.47
2017-11-20T17:55:42.772Z,18.57
2017-11-20T17:58:09.414Z,17.13
2017-11-20T18:00:36.043Z,17.30
2017-11-20T18:03:02.722Z,14.67
2017-11-20T18:05:29.388Z,17.80
2017-11-20T18:07:56.032Z,14.30
2017-11-20T18:10:22.677Z,13.60
2017-11-20T18:12:49.795Z,16.47
2017-11-20T18:15:16.578Z,14.83
2017-11-20T18:17:43.721Z,14.87
2017-11-20T18:20:11.710Z,18.00
2017-11-20T18:22:38.930Z,16.97
2017-11-20T18:25:06.097Z,18.07
2017-11-20T18:27:32.766Z,14.20
2017-11-20T18:29:59.430Z,16.10
2017-11-20T18:32:26.276Z,16.80
2017-11-20T18:34:52.902Z,18.13
2017-11-20T18:37:19.508Z,15.40
2017-11-20T18:39:46.195Z,14.57
2017-11-20T18:42:12.826Z,17.30
2017-11-20T18:44:39.458Z,21.30
2017-11-20T18:47:06.141Z,17.83
2017-11-20T18:49:32.902Z,20.10
2017-11-20T19:35:38.346Z,27.70
2017-11-20T19:38:05.643Z,23.10
2017-11-20T19:40:32.278Z,30.90
2017-11-20T19:42:58.920Z,19.67
2017-11-20T19:45:25.773Z,23.97
2017-11-20T19:47:52.741Z,21.70
2017-11-20T19:50:19.374Z,22.97
2017-11-20T19:52:48.880Z,28.90
2017-11-20T19:55:15.832Z,24.37
2017-11-20T19:57:43.062Z,20.30
2017-11-20T20:00:10.567Z,34.30
2017-11-20T20:02:40.059Z,25.17
2017-11-20T20:05:06.785Z,21.03
2017-11-20T20:07:34.017Z,24.30
2017-11-20T20:10:01.308Z,27.20
2017-11-20T20:12:28.300Z,19.67
2017-11-20T20:15:00.985Z,27.27
2017-11-20T20:17:27.780Z,19.33
2017-11-20T20:19:54.478Z,20.00
2017-11-20T20:22:21.284Z,24.87
2017-11-20T20:24:47.911Z,23.57
2017-11-20T20:27:14.569Z,21.13
2017-11-20T20:29:41.220Z,22.53
2017-11-20T20:32:07.883Z,22.43
2017-11-20T20:34:34.577Z,26.90
2017-11-20T20:37:01.258Z,25.33
2017-11-20T20:39:27.887Z,26.00
2017-11-20T20:41:54.501Z,26.60
2017-11-20T20:44:21.186Z,24.80
2017-11-20T20:46:47.847Z,24.87
2017-11-20T20:49:14.508Z,22.23
2017-11-20T20:51:41.182Z,22.27
2017-11-20T20:54:09.921Z,21.57
2017-11-20T20:56:37.569Z,30.70
2017-11-20T20:59:04.259Z,25.03
2017-11-20T21:01:31.003Z,34.00
2017-11-20T21:04:00.245Z,24.40
2017-11-20T21:06:26.969Z,34.87
2017-11-20T21:08:53.852Z,21.23
2017-11-20T21:11:27.350Z,22.40
2017-11-20T21:13:53.966Z,22.70
2017-11-20T21:16:20.662Z,18.30
2017-11-20T21:18:47.286Z,18.03
2017-11-20T21:21:13.888Z,16.60
2017-11-20T21:23:40.625Z,18.90
2017-11-20T21:26:07.259Z,17.40
2017-11-20T21:28:33.895Z,17.90
2017-11-20T21:31:00.515Z,13.83
2017-11-20T21:33:27.318Z,15.63
2017-11-20T21:35:54.024Z,14.40
2017-11-20T21:38:20.627Z,15.73
2017-11-20T21:40:47.229Z,15.63
2017-11-20T21:43:13.869Z,15.40
2017-11-20T21:45:40.561Z,17.20
2017-11-20T21:48:07.259Z,16.90
2017-11-20T21:50:34.121Z,15.23
2017-11-20T21:53:00.804Z,15.60
2017-11-20T21:55:27.607Z,13.90
2017-11-20T21:57:54.342Z,13.70
2017-11-20T22:00:20.997Z,15.63
2017-11-20T22:02:47.619Z,14.23
2017-11-20T22:05:14.269Z,13.00
2017-11-20T22:07:40.872Z,12.20
2017-11-20T22:10:07.508Z,12.37
2017-11-20T22:12:40.000Z,11.73
2017-11-20T22:15:06.745Z,10.23
2017-11-20T22:17:33.448Z,10.10
2017-11-20T22:20:00.062Z,11.00
2017-11-20T22:22:26.901Z,12.50
2017-11-20T22:24:53.531Z,10.60
2017-11-20T22:27:20.166Z,10.53
2017-11-20T22:29:46.776Z,10.53
2017-11-20T22:32:13.402Z,11.50
2017-11-20T22:34:40.103Z,12.77
2017-11-20T22:37:06.826Z,12.40
2017-11-20T22:39:33.421Z,10.13
2017-11-20T22:42:01.614Z,9.70
2017-11-20T22:44:28.280Z,9.70
2017-11-20T22:46:54.900Z,9.40
2017-11-20T22:49:21.529Z,9.10
2017-11-20T22:51:48.253Z,9.47
2017-11-20T22:54:14.889Z,8.50
2017-11-20T22:56:41.523Z,7.77
2017-11-20T22:59:08.137Z,8.10
2017-11-20T23:01:34.757Z,7.97
2017-11-20T23:04:01.396Z,7.60
2017-11-20T23:06:28.016Z,7.57
2017-11-20T23:08:54.630Z,6.50
2017-11-20T23:11:21.293Z,7.20
2017-11-20T23:13:47.890Z,6.73
2017-11-20T23:16:14.500Z,7.13
2017-11-20T23:18:41.084Z,6.90
2017-11-20T23:21:07.732Z,5.30
2017-11-20T23:23:34.336Z,4.93
2017-11-20T23:26:00.970Z,5.10
2017-11-20T23:28:27.555Z,5.70
2017-11-20T23:30:54.261Z,4.93
2017-11-20T23:33:20.864Z,4.67
2017-11-20T23:35:47.472Z,4.30
2017-11-20T23:38:14.059Z,4.67
2017-11-20T23:40:40.663Z,3.80
2017-11-20T23:43:07.267Z,3.80
2017-11-20T23:45:33.870Z,3.67
2017-11-20T23:48:00.477Z,4.40
2017-11-20T23:50:27.085Z,3.90
2017-11-20T23:52:53.712Z,3.67
2017-11-20T23:55:20.314Z,3.40
2017-11-20T23:57:46.938Z,3.83
